createdAt,value
2018-07-03T00:00:34.886Z,19.40
2018-07-03T00:03:03.575Z,19.40
2018-07-03T00:05:32.343Z,19.35
2018-07-03T00:08:00.982Z,19.31
2018-07-03T00:10:29.690Z,19.26
2018-07-03T00:12:58.383Z,19.30
2018-07-03T00:15:27.039Z,19.23
2018-07-03T00:17:56.059Z,19.22
2018-07-03T00:20:24.739Z,19.17
2018-07-03T00:22:53.539Z,19.19
2018-07-03T00:25:22.511Z,19.23
2018-07-03T00:27:51.780Z,19.23
2018-07-03T00:30:20.430Z,19.26
2018-07-03T00:32:49.090Z,19.25
2018-07-03T00:35:17.729Z,19.31
2018-07-03T00:37:46.715Z,19.34
2018-07-03T00:40:15.367Z,19.35
2018-07-03T00:42:43.962Z,19.35
2018-07-03T00:45:12.584Z,19.34
2018-07-03T00:47:41.219Z,19.29
2018-07-03T00:50:09.883Z,19.21
2018-07-03T00:52:38.527Z,19.19
2018-07-03T00:55:07.211Z,19.19
2018-07-03T00:57:35.920Z,19.18
2018-07-03T01:00:15.472Z,19.18
2018-07-03T01:02:44.335Z,19.17
2018-07-03T01:05:13.201Z,19.15
2018-07-03T01:07:41.830Z,19.12
2018-07-03T01:10:10.450Z,19.06
2018-07-03T01:12:39.184Z,18.63
2018-07-03T01:15:07.859Z,19.07
2018-07-03T01:17:36.589Z,19.09
2018-07-03T01:20:05.832Z,19.03
2018-07-03T01:22:34.528Z,18.99
2018-07-03T01:25:03.475Z,18.95
2018-07-03T01:27:32.100Z,18.99
2018-07-03T01:30:01.100Z,18.98
2018-07-03T01:32:29.799Z,18.86
2018-07-03T01:34:58.513Z,18.85
2018-07-03T01:37:27.444Z,18.84
2018-07-03T01:39:56.199Z,18.80
2018-07-03T01:42:24.815Z,18.75
2018-07-03T01:44:53.499Z,18.69
2018-07-03T01:47:22.195Z,18.65
2018-07-03T01:49:51.214Z,18.63
2018-07-03T01:52:19.831Z,18.62
2018-07-03T01:54:48.427Z,18.65
2018-07-03T01:57:17.099Z,18.70
2018-07-03T01:59:46.255Z,18.74
2018-07-03T02:02:14.968Z,18.72
2018-07-03T02:04:43.600Z,18.64
2018-07-03T02:07:12.313Z,18.75
2018-07-03T02:09:41.266Z,18.86
2018-07-03T02:12:09.924Z,18.78
2018-07-03T02:14:38.556Z,18.73
2018-07-03T02:17:07.625Z,18.82
2018-07-03T02:19:36.535Z,18.82
2018-07-03T02:22:05.194Z,18.81
2018-07-03T02:24:33.936Z,18.91
2018-07-03T02:27:02.607Z,18.96
2018-07-03T02:29:31.237Z,18.85
2018-07-03T02:32:00.146Z,18.82
2018-07-03T02:34:29.000Z,18.68
2018-07-03T02:36:57.879Z,18.55
2018-07-03T02:39:26.872Z,18.54
2018-07-03T02:41:55.529Z,18.52
2018-07-03T02:44:24.260Z,18.52
2018-07-03T02:46:53.005Z,18.63
2018-07-03T02:49:21.711Z,18.59
2018-07-03T02:51:50.359Z,18.49
2018-07-03T02:54:19.046Z,18.41
2018-07-03T02:56:47.735Z,18.43
2018-07-03T02:59:16.411Z,18.60
2018-07-03T03:01:45.104Z,18.66
2018-07-03T03:04:14.018Z,18.63
2018-07-03T03:06:42.784Z,18.70
2018-07-03T03:09:12.766Z,18.62
2018-07-03T03:11:41.736Z,18.55
2018-07-03T03:14:10.383Z,18.51
2018-07-03T03:16:39.093Z,18.48
2018-07-03T03:19:07.782Z,18.46
2018-07-03T03:21:36.414Z,18.49
2018-07-03T03:24:05.352Z,18.50
2018-07-03T03:26:34.263Z,18.57
2018-07-03T03:29:02.875Z,18.59
2018-07-03T03:31:31.824Z,18.61
2018-07-03T03:34:00.463Z,18.68
2018-07-03T03:36:29.171Z,18.52
2018-07-03T03:38:57.866Z,18.73
2018-07-03T03:41:26.777Z,18.64
2018-07-03T03:43:55.427Z,18.68
2018-07-03T03:46:24.118Z,18.71
2018-07-03T03:48:52.952Z,18.74
2018-07-03T03:51:21.817Z,18.87
2018-07-03T03:53:50.477Z,18.96
2018-07-03T03:56:19.147Z,19.03
2018-07-03T03:58:47.816Z,19.14
2018-07-03T04:01:16.521Z,19.26
2018-07-03T04:03:45.207Z,19.41
2018-07-03T04:06:13.863Z,18.38
2018-07-03T04:08:42.577Z,19.55
2018-07-03T04:11:11.811Z,19.66
2018-07-03T04:13:40.699Z,19.81
2018-07-03T04:16:09.619Z,19.77
2018-07-03T04:18:38.277Z,19.74
2018-07-03T04:21:08.046Z,19.82
2018-07-03T04:23:37.573Z,19.85
2018-07-03T04:26:06.260Z,19.82
2018-07-03T04:28:35.586Z,19.98
2018-07-03T04:31:04.647Z,20.04
2018-07-03T04:33:33.807Z,20.03
2018-07-03T04:36:03.594Z,20.16
2018-07-03T04:38:32.567Z,20.27
2018-07-03T04:41:01.577Z,20.33
2018-07-03T04:43:30.615Z,20.42
2018-07-03T04:45:59.653Z,20.58
2018-07-03T04:48:28.322Z,20.47
2018-07-03T04:50:57.014Z,20.52
2018-07-03T04:53:26.533Z,20.59
2018-07-03T04:55:55.396Z,20.52
2018-07-03T04:58:24.079Z,20.65
2018-07-03T05:00:53.135Z,20.89
2018-07-03T05:03:21.802Z,20.89
2018-07-03T05:05:50.592Z,20.91
2018-07-03T05:08:19.322Z,21.13
2018-07-03T05:10:48.018Z,21.23
2018-07-03T05:13:16.767Z,21.19
2018-07-03T05:15:45.563Z,21.47
2018-07-03T05:18:14.327Z,21.70
2018-07-03T05:20:43.186Z,22.05
2018-07-03T05:23:12.054Z,22.25
2018-07-03T05:25:40.864Z,22.62
2018-07-03T05:28:09.754Z,23.03
2018-07-03T05:30:38.685Z,23.29
2018-07-03T05:33:07.730Z,23.54
2018-07-03T05:35:36.616Z,23.66
2018-07-03T05:38:05.414Z,23.73
2018-07-03T05:40:34.503Z,23.97
2018-07-03T05:43:03.543Z,24.26
2018-07-03T05:45:32.418Z,24.23
2018-07-03T05:48:01.235Z,24.38
2018-07-03T05:50:30.131Z,24.63
2018-07-03T05:52:58.832Z,24.67
2018-07-03T05:55:28.048Z,25.17
2018-07-03T05:57:57.347Z,25.42
2018-07-03T06:00:26.084Z,25.03
2018-07-03T06:02:55.029Z,25.23
2018-07-03T06:05:23.835Z,25.64
2018-07-03T06:07:52.866Z,25.74
2018-07-03T06:10:21.828Z,25.51
2018-07-03T06:12:50.737Z,26.07
2018-07-03T06:15:19.394Z,26.17
2018-07-03T06:17:48.130Z,26.23
2018-07-03T06:20:16.995Z,26.19
2018-07-03T06:22:45.782Z,26.49
2018-07-03T06:25:14.641Z,26.57
2018-07-03T06:27:43.596Z,26.57
2018-07-03T06:30:12.383Z,27.30
2018-07-03T06:32:41.219Z,27.27
2018-07-03T06:35:10.020Z,27.19
2018-07-03T06:37:39.535Z,27.53
2018-07-03T06:40:08.061Z,27.83
2018-07-03T06:42:36.957Z,27.78
2018-07-03T06:45:06.192Z,27.50
2018-07-03T06:47:35.300Z,27.33
2018-07-03T06:50:04.476Z,27.80
2018-07-03T06:52:33.262Z,27.78
2018-07-03T06:55:02.611Z,27.25
2018-07-03T06:57:31.374Z,27.31
2018-07-03T07:00:00.408Z,27.63
2018-07-03T07:02:32.497Z,28.00
2018-07-03T07:05:19.396Z,28.10
2018-07-03T07:08:04.291Z,27.88
2018-07-03T07:10:49.010Z,27.76
2018-07-03T07:13:20.875Z,28.24
2018-07-03T07:15:49.585Z,28.57
2018-07-03T07:18:18.280Z,29.43
2018-07-03T07:20:47.573Z,29.45
2018-07-03T07:23:17.416Z,29.36
2018-07-03T07:25:46.351Z,29.59
2018-07-03T07:28:15.104Z,30.14
2018-07-03T07:30:43.965Z,30.43
2018-07-03T07:33:12.719Z,30.20
2018-07-03T07:35:42.366Z,30.53
2018-07-03T07:38:12.155Z,30.51
2018-07-03T07:40:41.105Z,30.10
2018-07-03T07:43:09.838Z,30.07
2018-07-03T07:45:38.856Z,30.47
2018-07-03T07:48:08.093Z,31.06
2018-07-03T07:50:36.854Z,31.28
2018-07-03T07:53:05.520Z,30.79
2018-07-03T07:55:34.695Z,30.80
2018-07-03T07:58:04.427Z,31.43
2018-07-03T08:00:34.512Z,31.54
2018-07-03T08:03:03.543Z,31.47
2018-07-03T08:05:33.409Z,31.53
2018-07-03T08:08:02.547Z,31.28
2018-07-03T08:10:31.392Z,31.90
2018-07-03T08:13:01.204Z,31.29
2018-07-03T08:15:30.278Z,30.43
2018-07-03T08:17:59.291Z,30.33
2018-07-03T08:20:28.071Z,30.76
2018-07-03T08:22:56.988Z,30.90
2018-07-03T08:25:26.870Z,30.73
2018-07-03T08:27:56.706Z,31.49
2018-07-03T08:30:26.003Z,31.21
2018-07-03T08:32:55.807Z,31.03
2018-07-03T08:35:27.431Z,31.11
2018-07-03T08:37:56.530Z,31.66
2018-07-03T08:40:26.258Z,31.70
2018-07-03T08:42:55.625Z,31.76
2018-07-03T08:45:25.143Z,31.77
2018-07-03T08:47:54.262Z,32.20
2018-07-03T08:50:24.328Z,31.95
2018-07-03T08:52:53.637Z,32.28
2018-07-03T08:55:22.542Z,32.32
2018-07-03T08:57:51.245Z,31.93
2018-07-03T09:00:20.866Z,32.87
2018-07-03T09:02:50.236Z,32.65
2018-07-03T09:05:19.167Z,32.65
2018-07-03T09:07:48.374Z,31.89
2018-07-03T09:10:17.266Z,31.83
2018-07-03T09:12:46.260Z,31.73
2018-07-03T09:15:15.216Z,32.11
2018-07-03T09:17:45.048Z,31.73
2018-07-03T09:20:13.794Z,31.21
2018-07-03T09:22:42.926Z,32.27
2018-07-03T09:25:11.973Z,33.19
2018-07-03T09:27:40.736Z,33.28
2018-07-03T09:30:10.608Z,32.61
2018-07-03T09:32:39.485Z,33.17
2018-07-03T09:35:08.632Z,33.57
2018-07-03T09:37:38.511Z,33.57
2018-07-03T09:40:07.543Z,33.14
2018-07-03T09:42:36.267Z,32.78
2018-07-03T09:45:06.310Z,33.45
2018-07-03T09:47:35.464Z,33.54
2018-07-03T09:50:04.400Z,32.78
2018-07-03T09:52:33.367Z,33.96
2018-07-03T09:55:02.333Z,34.10
2018-07-03T09:57:32.185Z,34.62
2018-07-03T10:00:01.612Z,34.29
2018-07-03T10:02:30.303Z,33.78
2018-07-03T10:04:59.032Z,33.57
2018-07-03T10:07:28.014Z,33.87
2018-07-03T10:09:57.240Z,34.18
2018-07-03T10:12:26.521Z,33.81
2018-07-03T10:14:55.246Z,33.08
2018-07-03T10:17:25.384Z,33.27
2018-07-03T10:19:55.697Z,33.61
2018-07-03T10:22:24.754Z,33.24
2018-07-03T10:24:53.619Z,33.86
2018-07-03T10:27:22.719Z,33.95
2018-07-03T10:29:51.675Z,33.61
2018-07-03T10:32:20.971Z,33.52
2018-07-03T10:34:49.928Z,33.96
2018-07-03T10:37:18.883Z,34.17
2018-07-03T10:39:47.902Z,34.39
2018-07-03T10:42:17.110Z,33.77
2018-07-03T10:44:45.968Z,33.88
2018-07-03T10:47:15.746Z,34.48
2018-07-03T10:49:44.540Z,34.67
2018-07-03T10:52:13.480Z,34.85
2018-07-03T10:54:43.484Z,34.22
2018-07-03T10:57:12.180Z,34.39
2018-07-03T10:59:40.908Z,34.67
2018-07-03T11:02:10.115Z,34.98
2018-07-03T11:04:38.898Z,34.92
2018-07-03T11:07:07.679Z,34.06
2018-07-03T11:09:37.239Z,34.30
2018-07-03T11:12:06.946Z,34.67
2018-07-03T11:14:35.985Z,34.62
2018-07-03T11:17:04.984Z,34.46
2018-07-03T11:19:34.115Z,34.14
2018-07-03T11:22:03.052Z,34.23
2018-07-03T11:24:31.735Z,34.38
2018-07-03T11:27:00.436Z,34.36
2018-07-03T11:29:29.320Z,34.72
2018-07-03T11:31:58.199Z,34.11
2018-07-03T11:34:26.991Z,34.58
2018-07-03T11:36:56.167Z,34.28
2018-07-03T11:39:25.383Z,34.07
2018-07-03T11:41:54.191Z,34.12
2018-07-03T11:44:23.758Z,34.34
2018-07-03T11:46:52.577Z,35.14
2018-07-03T11:49:22.353Z,35.03
2018-07-03T11:51:51.115Z,34.53
2018-07-03T11:54:19.840Z,34.08
2018-07-03T11:56:49.133Z,33.89
2018-07-03T11:59:17.894Z,34.00
2018-07-03T12:01:47.080Z,34.18
2018-07-03T12:04:16.341Z,34.73
2018-07-03T12:06:45.261Z,35.01
2018-07-03T12:09:14.256Z,35.19
2018-07-03T12:11:43.406Z,35.04
2018-07-03T12:14:12.419Z,35.10
2018-07-03T12:16:41.157Z,34.27
2018-07-03T12:19:10.038Z,33.38
2018-07-03T12:21:39.045Z,33.07
2018-07-03T12:24:07.773Z,33.04
2018-07-03T12:26:36.839Z,33.31
2018-07-03T12:29:06.136Z,33.11
2018-07-03T12:31:34.791Z,32.98
2018-07-03T12:34:03.399Z,33.14
2018-07-03T12:36:32.636Z,33.00
2018-07-03T12:39:02.036Z,33.66
2018-07-03T12:41:31.012Z,33.81
2018-07-03T12:43:59.769Z,33.70
2018-07-03T12:46:29.046Z,33.71
2018-07-03T12:48:57.723Z,34.05
2018-07-03T12:51:26.662Z,33.82
2018-07-03T12:53:55.507Z,33.18
2018-07-03T12:56:24.976Z,32.93
2018-07-03T12:58:54.548Z,32.08
2018-07-03T13:01:23.280Z,31.39
2018-07-03T13:03:52.318Z,31.31
2018-07-03T13:06:21.047Z,31.69
2018-07-03T13:08:50.211Z,32.65
2018-07-03T13:11:19.080Z,33.32
2018-07-03T13:13:48.327Z,33.73
2018-07-03T13:16:17.064Z,34.23
2018-07-03T13:18:45.767Z,34.88
2018-07-03T13:21:15.421Z,35.20
2018-07-03T13:23:44.141Z,35.47
2018-07-03T13:26:12.875Z,36.16
2018-07-03T13:28:41.788Z,36.66
2018-07-03T13:31:10.534Z,36.10
2018-07-03T13:33:39.452Z,36.03
2018-07-03T13:36:08.490Z,35.57
2018-07-03T13:38:37.394Z,33.79
2018-07-03T13:41:06.508Z,32.52
2018-07-03T13:43:35.585Z,31.81
2018-07-03T13:46:04.363Z,31.62
2018-07-03T13:48:33.485Z,31.63
2018-07-03T13:51:02.221Z,31.79
2018-07-03T13:53:32.040Z,32.18
2018-07-03T13:56:00.775Z,32.26
2018-07-03T13:58:29.767Z,32.37
2018-07-03T14:00:58.551Z,32.19
2018-07-03T14:03:27.261Z,32.33
2018-07-03T14:05:56.095Z,32.18
2018-07-03T14:08:25.240Z,31.85
2018-07-03T14:10:54.116Z,32.18
2018-07-03T14:13:22.772Z,31.93
2018-07-03T14:15:51.693Z,31.75
2018-07-03T14:18:25.006Z,31.67
2018-07-03T14:20:54.910Z,31.63
2018-07-03T14:23:23.568Z,31.83
2018-07-03T14:25:52.671Z,31.80
2018-07-03T14:28:21.471Z,31.74
2018-07-03T14:30:50.242Z,31.66
2018-07-03T14:33:19.288Z,31.60
2018-07-03T14:35:48.104Z,31.79
2018-07-03T14:38:16.751Z,31.17
2018-07-03T14:40:45.510Z,31.77
2018-07-03T14:43:14.220Z,31.57
2018-07-03T14:45:44.162Z,31.30
2018-07-03T14:48:13.452Z,31.24
2018-07-03T14:50:42.150Z,31.31
2018-07-03T14:53:12.679Z,31.23
2018-07-03T14:55:41.516Z,31.42
2018-07-03T14:58:10.170Z,31.58
2018-07-03T15:00:39.044Z,31.60
2018-07-03T15:03:07.724Z,31.56
2018-07-03T15:05:36.453Z,31.41
2018-07-03T15:08:05.472Z,31.05
2018-07-03T15:10:34.114Z,31.00
2018-07-03T15:13:04.242Z,31.12
2018-07-03T15:15:32.912Z,31.29
2018-07-03T15:18:01.668Z,31.13
2018-07-03T15:20:30.704Z,31.00
2018-07-03T15:22:59.847Z,30.88
2018-07-03T15:25:35.252Z,30.76
2018-07-03T15:30:54.070Z,30.20
2018-07-03T15:33:22.723Z,30.00
2018-07-03T15:35:51.532Z,30.07
2018-07-03T15:38:20.150Z,30.19
2018-07-03T15:40:48.972Z,30.19
2018-07-03T15:43:18.618Z,30.04
2018-07-03T15:45:47.273Z,29.85
2018-07-03T15:48:43.075Z,29.83
2018-07-03T15:51:11.930Z,29.76
2018-07-03T15:53:43.971Z,29.80
2018-07-03T15:56:12.846Z,29.69
2018-07-03T15:58:41.473Z,29.74
2018-07-03T16:01:10.134Z,29.76
2018-07-03T16:04:15.037Z,29.77
2018-07-03T16:07:21.941Z,29.64
2018-07-03T16:09:50.745Z,29.59
2018-07-03T16:12:30.154Z,29.64
2018-07-03T16:14:58.936Z,29.55
2018-07-03T16:17:27.824Z,29.43
2018-07-03T16:20:01.604Z,29.41
2018-07-03T16:22:30.720Z,29.33
2018-07-03T16:24:59.779Z,29.36
2018-07-03T16:27:28.574Z,29.33
2018-07-03T16:29:57.752Z,29.26
2018-07-03T16:32:26.446Z,29.11
2018-07-03T16:34:55.203Z,29.03
2018-07-03T16:37:24.080Z,28.94
2018-07-03T16:39:52.871Z,28.90
2018-07-03T16:42:21.570Z,28.81
2018-07-03T16:44:50.205Z,28.63
2018-07-03T16:47:23.144Z,28.53
2018-07-03T16:49:53.374Z,28.58
2018-07-03T16:52:22.152Z,28.54
2018-07-03T16:54:50.835Z,28.41
2018-07-03T16:57:19.516Z,28.44
2018-07-03T16:59:53.577Z,28.52
2018-07-03T17:02:34.224Z,27.12
2018-07-03T17:05:03.787Z,28.57
2018-07-03T17:07:32.495Z,28.09
2018-07-03T17:10:03.895Z,28.49
2018-07-03T17:12:32.878Z,28.32
2018-07-03T17:15:01.841Z,28.05
2018-07-03T17:17:31.103Z,27.89
2018-07-03T17:19:59.783Z,27.69
2018-07-03T17:22:28.453Z,27.38
2018-07-03T17:24:57.139Z,27.05
2018-07-03T17:27:25.832Z,26.85
2018-07-03T17:29:54.521Z,26.71
2018-07-03T17:32:23.238Z,26.48
2018-07-03T17:34:51.954Z,26.18
2018-07-03T17:37:21.102Z,26.18
2018-07-03T17:40:01.052Z,26.13
2018-07-03T17:42:40.839Z,25.97
2018-07-03T17:45:51.084Z,25.71
2018-07-03T17:48:38.853Z,25.23
2018-07-03T17:51:07.599Z,25.40
2018-07-03T17:53:36.697Z,25.35
2018-07-03T17:56:05.611Z,25.24
2018-07-03T17:58:45.200Z,25.07
2018-07-03T18:01:14.020Z,24.83
2018-07-03T18:03:42.675Z,24.80
2018-07-03T18:06:11.750Z,24.71
2018-07-03T18:08:40.433Z,24.62
2018-07-03T18:11:09.965Z,24.49
2018-07-03T18:13:38.619Z,24.51
2018-07-03T18:16:08.512Z,24.44
2018-07-03T18:18:37.194Z,24.39
2018-07-03T18:21:06.063Z,24.30
2018-07-03T18:23:34.776Z,24.24
2018-07-03T18:26:03.607Z,24.14
2018-07-03T18:28:33.129Z,24.09
2018-07-03T18:31:01.978Z,24.06
2018-07-03T18:33:31.103Z,24.00
2018-07-03T18:35:59.836Z,23.96
2018-07-03T18:38:29.109Z,23.97
2018-07-03T18:40:57.730Z,24.01
2018-07-03T18:43:27.028Z,24.03
2018-07-03T18:45:55.760Z,24.02
2018-07-03T18:48:24.492Z,22.54
2018-07-03T18:50:53.251Z,23.91
2018-07-03T18:53:21.991Z,23.87
2018-07-03T18:55:54.674Z,23.83
2018-07-03T18:58:23.333Z,23.72
2018-07-03T19:00:52.176Z,23.70
2018-07-03T19:03:21.242Z,23.69
2018-07-03T19:05:49.926Z,23.67
2018-07-03T19:08:18.690Z,23.60
2018-07-03T19:10:47.537Z,23.54
2018-07-03T19:13:16.782Z,23.50
2018-07-03T19:15:45.745Z,23.46
2018-07-03T19:18:14.639Z,23.43
2018-07-03T19:20:43.591Z,23.32
2018-07-03T19:23:12.258Z,23.21
2018-07-03T19:25:41.128Z,23.16
2018-07-03T19:28:09.947Z,23.10
2018-07-03T19:30:39.786Z,23.06
2018-07-03T19:33:08.569Z,23.02
2018-07-03T19:35:37.209Z,23.01
2018-07-03T19:38:06.218Z,22.93
2018-07-03T19:40:34.901Z,22.91
2018-07-03T19:43:24.284Z,22.92
2018-07-03T19:45:53.871Z,22.91
2018-07-03T19:48:23.054Z,22.87
2018-07-03T19:50:53.135Z,22.82
2018-07-03T19:53:21.877Z,22.76
2018-07-03T19:55:51.794Z,22.78
2018-07-03T19:58:21.006Z,22.79
2018-07-03T20:00:50.950Z,22.79
2018-07-03T20:03:19.673Z,22.84
2018-07-03T20:05:48.402Z,22.87
2018-07-03T20:08:17.215Z,22.90
2018-07-03T20:10:45.978Z,21.84
2018-07-03T20:13:16.204Z,22.97
2018-07-03T20:15:44.894Z,22.99
2018-07-03T20:18:14.098Z,23.02
2018-07-03T20:20:42.965Z,22.98
2018-07-03T20:23:11.622Z,22.99
2018-07-03T20:25:40.604Z,22.95
2018-07-03T20:28:09.547Z,22.89
2018-07-03T20:30:38.302Z,21.75
2018-07-03T20:33:06.914Z,22.89
2018-07-03T20:35:35.612Z,22.89
2018-07-03T20:38:06.592Z,22.86
2018-07-03T20:41:08.124Z,22.87
2018-07-03T20:43:40.005Z,22.85
2018-07-03T20:46:10.140Z,22.86
2018-07-03T20:48:38.926Z,22.87
2018-07-03T20:51:07.769Z,22.24
2018-07-03T20:53:39.282Z,22.84
2018-07-03T20:56:08.288Z,22.85
2018-07-03T20:58:36.954Z,22.85
2018-07-03T21:01:20.073Z,22.86
2018-07-03T21:04:00.640Z,22.85
2018-07-03T21:06:29.244Z,19.86
2018-07-03T21:08:57.985Z,22.79
2018-07-03T21:11:27.272Z,22.72
2018-07-03T21:13:56.731Z,22.59
2018-07-03T21:16:25.395Z,22.44
2018-07-03T21:18:54.381Z,22.22
2018-07-03T21:21:23.043Z,22.10
2018-07-03T21:23:51.674Z,22.05
2018-07-03T21:26:20.326Z,22.06
2018-07-03T21:28:48.950Z,22.08
2018-07-03T21:31:17.687Z,22.08
2018-07-03T21:33:46.263Z,22.11
2018-07-03T21:36:14.984Z,22.08
2018-07-03T21:38:43.595Z,22.05
2018-07-03T21:41:12.276Z,21.89
2018-07-03T21:43:41.168Z,21.84
2018-07-03T21:46:09.887Z,21.73
2018-07-03T21:48:38.574Z,21.66
2018-07-03T21:51:07.531Z,21.56
2018-07-03T21:53:36.238Z,21.53
2018-07-03T21:56:04.958Z,21.52
2018-07-03T21:58:33.763Z,21.49
2018-07-03T22:01:02.731Z,21.39
2018-07-03T22:03:31.367Z,21.35
2018-07-03T22:06:00.022Z,21.31
2018-07-03T22:08:28.661Z,21.20
2018-07-03T22:10:57.311Z,21.15
2018-07-03T22:13:25.966Z,21.15
2018-07-03T22:15:54.580Z,21.11
2018-07-03T22:18:23.267Z,21.11
2018-07-03T22:20:52.014Z,21.06
2018-07-03T22:23:20.694Z,21.03
2018-07-03T22:25:49.442Z,21.03
2018-07-03T22:28:18.133Z,21.02
2018-07-03T22:30:46.832Z,20.98
2018-07-03T22:33:15.531Z,21.01
2018-07-03T22:35:44.246Z,21.02
2018-07-03T22:38:12.999Z,20.96
2018-07-03T22:40:41.595Z,20.90
2018-07-03T22:43:10.258Z,20.89
2018-07-03T22:45:38.918Z,20.81
2018-07-03T22:48:07.618Z,20.82
2018-07-03T22:50:36.294Z,20.82
2018-07-03T22:53:05.281Z,20.81
2018-07-03T22:55:34.065Z,20.83
2018-07-03T22:58:02.708Z,20.86
2018-07-03T23:00:31.417Z,20.86
2018-07-03T23:03:00.393Z,20.85
2018-07-03T23:05:29.321Z,20.85
2018-07-03T23:07:57.984Z,20.84
2018-07-03T23:10:26.855Z,20.83
2018-07-03T23:12:55.491Z,20.82
2018-07-03T23:15:24.735Z,20.81
2018-07-03T23:17:53.372Z,20.79
2018-07-03T23:20:22.021Z,20.76
2018-07-03T23:22:50.934Z,20.74
2018-07-03T23:25:19.574Z,20.74
2018-07-03T23:27:48.181Z,20.76
2018-07-03T23:30:16.842Z,20.77
2018-07-03T23:32:45.736Z,20.73
2018-07-03T23:35:16.283Z,20.69
2018-07-03T23:37:44.955Z,20.65
2018-07-03T23:40:13.934Z,20.68
2018-07-03T23:42:42.613Z,20.70
2018-07-03T23:45:11.393Z,20.72
2018-07-03T23:47:51.172Z,20.70
2018-07-03T23:50:30.785Z,20.67
2018-07-03T23:53:10.519Z,20.60
2018-07-03T23:55:50.362Z,20.48
2018-07-03T23:58:30.396Z,20.35
